メインページ
METAR-TAF:

METAR-TAF

空港 :

ウィニペグ, マニトバ州, カナダ

ウィニペグ・ジェームス・アームストロング・リチャードソン国際空港

緯度: 49-54N, 経度: 097-14W, 海抜: 239m

現時点の気象観測

当レポートは37分前の01:00(UTC)に作成
北/北東の風 14kt
気温 2°C
湿度 51%
気圧 1019 hPa
視程: 24.1km
高度14000ftの千切れ雲あり
高度26000ftの千切れ雲あり

METAR: CYWG 240100Z 03014KT 15SM BKN140 BKN260 02/M07 A3010 RMK AS5CS2 SLP208

時間: 20:37 (01:37 UTC)

予報

当レポートは1時間59分前の23:38(UTC)に作成
予報は24日の 00時(UTC)から 24日の 24時(UTC)まで有効
東/北東の風 12kt
視程: 10km
高度5000ftの雲はほとんどない
高度14000ftの雲は散在している
高度20000ftの千切れ雲あり
24日の 0600時(UTC)から
の風 12kt
視程: 10km
高度6000ftの千切れ雲あり
高度18000ftの曇り
24日の 1100時(UTC)から
東/北東の風 15kt、最大25ktの突風を伴う
視程: 3.2km
高度2000ftの曇り
小雪
24日の 11時(UTC)から 24日の 22時(UTC)まで一時的に
視程: 0.8km
高度600ftの
にわか雪
24日の 2200時(UTC)から
北東の風 15kt、最大25ktの突風を伴う
視程: 4.8km
高度2000ftの曇り
小雪
24日の 22時(UTC)から 24日の 24時(UTC)まで一時的に
視程: 1.6km
高度800ftの
小雪

TAF: CYWG 232338Z 2400/2424 06012KT P6SM FEW050 SCT140 BKN200 FM240600 09012KT P6SM BKN060 OVC180 FM241100 07015G25KT 2SM -SN OVC020 TEMPO 2411/2422 1/2SM SHSN VV006 FM242200 04015G25KT 3SM -SN OVC020 TEMPO 2422/2424 1SM -SN VV008 RMK NXT FCST BY 240600Z

4,000以上の空港の気象観測と天気予報(METAR報とTAF報)

利用可能な観測所は地図上に黄色い丸と赤い丸で示す。

丸の上にカーソルを重ねると観測所名を参照できる。

次にクリックすると気象観測と天気予報を参照できる。

マップの切り替え:黒色「×」印の緑ボタンをクリックして拡大、「-」印の緑ボタンをクリックして縮小、緑色の三角印をクリックして隣りの地図に切り替え


METAR-TAF: